Time;durP1;ratioP1;P1;durP2;ratioP2;P2;SDS_P1;SDS_P2;PMS_P1;PMS_P2;Temp;Humidity;BMP_temperature;BMP_pressure;BME280_temperature;BME280_humidity;BME280_pressure;Samples;Min_cycle;Max_cycle;Signal;HPM_P1;HPM_P2
2022/11/20 00:00:12;;;;;;;5.90;1.70;;;;;;;;;;5055224;28;20037;-74
2022/11/20 00:02:38;;;;;;;4.80;1.35;;;;;;;;;;5055510;28;20476;-74
2022/11/20 00:05:04;;;;;;;3.70;1.30;;;;;;;;;;5055198;28;20087;-74
2022/11/20 00:07:30;;;;;;;4.75;1.70;;;;;;;;;;5055158;28;20039;-74
2022/11/20 00:09:56;;;;;;;8.00;1.55;;;;;;;;;;5055396;28;20123;-74
2022/11/20 00:12:22;;;;;;;2.92;1.38;;;;;;;;;;5055374;28;20041;-74
2022/11/20 00:14:48;;;;;;;2.75;1.35;;;;;;;;;;5055052;28;20041;-74
2022/11/20 00:17:14;;;;;;;4.60;1.48;;;;;;;;;;5054924;28;20519;-74
2022/11/20 00:19:41;;;;;;;3.78;1.33;;;;;;;;;;5055380;28;20049;-74
2022/11/20 00:22:07;;;;;;;5.13;1.80;;;;;;;;;;5055219;28;20037;-74
2022/11/20 00:24:33;;;;;;;4.18;1.50;;;;;;;;;;5055094;28;20079;-74
2022/11/20 00:26:59;;;;;;;3.65;1.15;;;;;;;;;;5054713;28;20041;-74
2022/11/20 00:29:25;;;;;;;3.70;1.38;;;;;;;;;;5055369;28;20049;-74
2022/11/20 00:31:51;;;;;;;6.07;1.67;;;;;;;;;;5054859;28;20044;-74
2022/11/20 00:34:17;;;;;;;2.72;1.55;;;;;;;;;;5054477;28;20068;-74
2022/11/20 00:36:43;;;;;;;6.65;2.20;;;;;;;;;;5054799;28;20526;-74
2022/11/20 00:39:10;;;;;;;6.10;1.55;;;;;;;;;;5054730;28;20052;-74
2022/11/20 00:41:36;;;;;;;6.15;1.67;;;;;;;;;;5052288;28;20041;-74
2022/11/20 00:44:02;;;;;;;6.55;1.40;;;;;;;;;;5052689;28;20120;-74
2022/11/20 00:46:28;;;;;;;5.57;1.55;;;;;;;;;;5053260;28;20132;-74
2022/11/20 00:48:54;;;;;;;3.00;1.20;;;;;;;;;;5053428;28;20059;-74
2022/11/20 00:51:22;;;;;;;3.28;1.30;;;;;;;;;;5054228;28;20037;-74
2022/11/20 00:53:49;;;;;;;4.72;1.20;;;;;;;;;;5054485;28;20106;-74
2022/11/20 00:56:16;;;;;;;3.75;1.38;;;;;;;;;;5054183;28;20029;-74
2022/11/20 00:58:43;;;;;;;3.28;1.52;;;;;;;;;;5054229;28;20082;-74
2022/11/20 01:01:09;;;;;;;6.38;1.40;;;;;;;;;;5054050;28;20589;-74
2022/11/20 01:03:36;;;;;;;2.80;1.10;;;;;;;;;;5054337;28;20048;-74
2022/11/20 01:06:07;;;;;;;3.47;1.35;;;;;;;;;;5054371;28;20075;-74
2022/11/20 01:08:34;;;;;;;6.53;1.95;;;;;;;;;;5054367;28;20051;-74
2022/11/20 01:11:04;;;;;;;3.38;1.48;;;;;;;;;;5054331;28;20040;-74
2022/11/20 01:13:37;;;;;;;6.13;1.70;;;;;;;;;;5054160;28;20045;-74
2022/11/20 01:16:05;;;;;;;1.40;1.20;;;;;;;;;;5054480;28;20106;-74
2022/11/20 01:18:31;;;;;;;3.60;1.30;;;;;;;;;;5054708;28;20060;-73
2022/11/20 01:21:02;;;;;;;4.18;1.10;;;;;;;;;;5054052;28;20049;-74
2022/11/20 01:23:28;;;;;;;;;;;;;;;;;;5054709;28;20080;-74
2022/11/20 01:25:54;;;;;;;4.47;1.50;;;;;;;;;;5054171;28;19921;-74
2022/11/20 01:28:20;;;;;;;3.40;1.20;;;;;;;;;;5054137;28;20507;-74
2022/11/20 01:30:46;;;;;;;3.00;0.95;;;;;;;;;;5054658;28;20059;-74
2022/11/20 01:33:12;;;;;;;3.70;1.45;;;;;;;;;;5054106;28;20061;-74
2022/11/20 01:35:38;;;;;;;3.42;1.33;;;;;;;;;;5054351;28;20045;-74
2022/11/20 01:38:04;;;;;;;6.07;1.20;;;;;;;;;;5054530;28;20052;-74
2022/11/20 01:40:30;;;;;;;3.65;1.30;;;;;;;;;;5053861;28;20045;-74
2022/11/20 01:43:20;;;;;;;3.75;1.25;;;;;;;;;;5054589;28;20568;-74
2022/11/20 01:45:55;;;;;;;6.05;1.30;;;;;;;;;;5054277;28;20519;-74
2022/11/20 01:48:23;;;;;;;6.47;2.20;;;;;;;;;;5054765;28;20063;-74
2022/11/20 01:50:50;;;;;;;4.05;1.63;;;;;;;;;;5054345;28;20049;-74
2022/11/20 01:53:18;;;;;;;3.78;1.50;;;;;;;;;;5054118;28;20171;-74
2022/11/20 01:55:47;;;;;;;4.03;1.55;;;;;;;;;;5057807;28;20052;-74
2022/11/20 01:58:14;;;;;;;6.10;1.42;;;;;;;;;;5057954;28;20492;-74
2022/11/20 02:00:40;;;;;;;4.63;1.60;;;;;;;;;;5057877;28;20045;-74
2022/11/20 02:03:12;;;;;;;3.33;1.27;;;;;;;;;;5057587;28;20547;-74
2022/11/20 02:05:57;;;;;;;1.95;1.05;;;;;;;;;;5057628;28;20041;-74
2022/11/20 02:08:23;;;;;;;5.55;1.23;;;;;;;;;;5057787;28;20048;-74
2022/11/20 02:10:50;;;;;;;1.60;0.82;;;;;;;;;;5057383;28;20103;-74
2022/11/20 02:16:01;;;;;;;3.00;1.60;;;;;;;;;;5056784;28;20128;-74
2022/11/20 02:18:28;;;;;;;4.05;1.20;;;;;;;;;;5057401;28;20500;-74
2022/11/20 02:20:56;;;;;;;2.97;1.20;;;;;;;;;;5057385;28;20049;-74
2022/11/20 02:23:22;;;;;;;3.88;1.02;;;;;;;;;;5057715;28;20087;-74
2022/11/20 02:25:49;;;;;;;2.72;1.27;;;;;;;;;;5057187;28;20139;-74
2022/11/20 02:28:15;;;;;;;8.75;1.58;;;;;;;;;;5057102;28;20048;-74
2022/11/20 02:30:41;;;;;;;5.20;1.40;;;;;;;;;;5057650;28;20163;-74
2022/11/20 02:33:07;;;;;;;2.63;1.17;;;;;;;;;;5056967;28;20450;-74
2022/11/20 02:35:33;;;;;;;1.88;1.10;;;;;;;;;;5057362;28;20041;-74
2022/11/20 02:38:01;;;;;;;3.13;1.38;;;;;;;;;;5056870;28;20049;-74
2022/11/20 02:40:28;;;;;;;3.65;1.55;;;;;;;;;;5056998;28;20052;-74
2022/11/20 02:42:55;;;;;;;3.15;1.15;;;;;;;;;;5056740;28;20060;-74
2022/11/20 02:45:22;;;;;;;2.45;1.33;;;;;;;;;;5057027;28;20041;-74
2022/11/20 02:47:48;;;;;;;5.47;1.80;;;;;;;;;;5056927;28;20495;-74
2022/11/20 02:50:14;;;;;;;1.60;1.27;;;;;;;;;;5057100;28;20041;-74
2022/11/20 02:52:40;;;;;;;2.88;1.30;;;;;;;;;;5056927;28;20033;-73
2022/11/20 02:55:07;;;;;;;3.42;1.38;;;;;;;;;;5057086;28;20110;-73
2022/11/20 02:57:33;;;;;;;2.42;1.25;;;;;;;;;;5057124;28;20037;-73
2022/11/20 02:59:59;;;;;;;3.65;1.60;;;;;;;;;;5056947;28;20055;-73
2022/11/20 03:02:26;;;;;;;2.38;1.50;;;;;;;;;;5056982;28;20041;-74
2022/11/20 03:04:52;;;;;;;3.78;1.45;;;;;;;;;;5056554;28;20070;-74
2022/11/20 03:07:18;;;;;;;5.95;1.20;;;;;;;;;;5056310;28;20123;-74
2022/11/20 03:09:44;;;;;;;4.28;1.33;;;;;;;;;;5056693;28;20041;-74
2022/11/20 03:12:10;;;;;;;3.08;1.50;;;;;;;;;;5056562;28;20084;-74
2022/11/20 03:14:36;;;;;;;5.03;1.50;;;;;;;;;;5056481;28;20144;-74
2022/11/20 03:17:02;;;;;;;4.00;1.30;;;;;;;;;;5056472;28;20037;-74
2022/11/20 03:19:28;;;;;;;4.70;1.45;;;;;;;;;;5056574;28;20052;-74
2022/11/20 03:21:54;;;;;;;4.40;1.30;;;;;;;;;;5056372;28;20048;-74
2022/11/20 03:24:21;;;;;;;2.85;1.42;;;;;;;;;;5056841;28;20468;-74
2022/11/20 03:26:47;;;;;;;6.20;1.40;;;;;;;;;;5056040;28;20072;-74
2022/11/20 03:29:13;;;;;;;1.90;1.10;;;;;;;;;;5056326;28;20037;-74
2022/11/20 03:31:40;;;;;;;4.47;1.45;;;;;;;;;;5056423;28;20051;-74
2022/11/20 03:34:07;;;;;;;3.08;1.27;;;;;;;;;;5056073;28;20033;-74
2022/11/20 03:36:33;;;;;;;4.25;1.38;;;;;;;;;;5055750;28;20047;-73
2022/11/20 03:38:59;;;;;;;5.45;1.25;;;;;;;;;;5056553;28;20472;-73
2022/11/20 03:41:30;;;;;;;4.18;1.88;;;;;;;;;;5055814;28;20175;-74
2022/11/20 03:43:57;;;;;;;4.05;1.63;;;;;;;;;;5056572;28;20040;-74
2022/11/20 03:46:24;;;;;;;2.53;1.33;;;;;;;;;;5055585;28;20045;-74
2022/11/20 03:48:50;;;;;;;5.43;1.15;;;;;;;;;;5056417;28;20044;-74
2022/11/20 03:51:16;;;;;;;3.65;1.40;;;;;;;;;;5055812;28;20048;-74
2022/11/20 03:53:43;;;;;;;5.07;1.65;;;;;;;;;;5055771;28;20128;-74
2022/11/20 03:56:10;;;;;;;6.15;1.40;;;;;;;;;;5055526;28;20084;-74
2022/11/20 03:58:39;;;;;;;4.50;1.40;;;;;;;;;;5055308;28;20150;-74
2022/11/20 04:01:12;;;;;;;3.70;1.23;;;;;;;;;;5055596;28;20041;-74
2022/11/20 04:03:39;;;;;;;3.80;1.23;;;;;;;;;;5055880;28;20487;-74
2022/11/20 04:06:06;;;;;;;6.18;1.52;;;;;;;;;;5055249;28;20064;-74
2022/11/20 04:08:32;;;;;;;2.83;1.10;;;;;;;;;;5055479;28;20041;-74
2022/11/20 04:11:08;;;;;;;4.60;1.40;;;;;;;;;;5055113;28;20049;-74
2022/11/20 04:13:34;;;;;;;4.07;1.13;;;;;;;;;;5055470;28;20052;-74
2022/11/20 04:16:00;;;;;;;6.35;1.60;;;;;;;;;;5055443;28;20550;-74
2022/11/20 04:18:26;;;;;;;6.13;1.48;;;;;;;;;;5055401;28;20076;-74
2022/11/20 04:20:53;;;;;;;4.45;1.48;;;;;;;;;;5055460;28;20048;-74
2022/11/20 04:23:19;;;;;;;7.03;1.40;;;;;;;;;;5055232;28;20037;-74
2022/11/20 04:25:45;;;;;;;4.05;1.20;;;;;;;;;;5055149;28;20049;-74
2022/11/20 04:28:11;;;;;;;2.78;1.30;;;;;;;;;;5055704;28;20041;-74
2022/11/20 04:30:37;;;;;;;9.30;1.55;;;;;;;;;;5054677;28;20080;-74
2022/11/20 04:33:03;;;;;;;6.40;1.27;;;;;;;;;;5055071;28;20044;-74
2022/11/20 04:35:29;;;;;;;3.53;1.30;;;;;;;;;;5055299;28;20095;-74
2022/11/20 04:37:55;;;;;;;4.78;1.10;;;;;;;;;;5055442;28;20041;-74
2022/11/20 04:40:21;;;;;;;4.85;1.40;;;;;;;;;;5054863;28;20400;-74
2022/11/20 04:42:47;;;;;;;4.82;1.63;;;;;;;;;;5054919;28;20158;-74
2022/11/20 04:45:14;;;;;;;4.38;1.20;;;;;;;;;;5055009;28;20033;-74
2022/11/20 04:47:40;;;;;;;5.10;1.50;;;;;;;;;;5054577;28;20037;-74
2022/11/20 04:50:06;;;;;;;3.67;1.00;;;;;;;;;;5054958;28;20056;-74
2022/11/20 04:52:32;;;;;;;4.35;1.15;;;;;;;;;;5054457;28;20029;-74
2022/11/20 04:54:58;;;;;;;5.38;1.50;;;;;;;;;;5054331;28;20047;-74
2022/11/20 04:57:24;;;;;;;4.07;1.20;;;;;;;;;;5055300;28;20058;-74
2022/11/20 04:59:51;;;;;;;2.90;1.15;;;;;;;;;;5054415;28;20492;-74
2022/11/20 05:02:17;;;;;;;6.50;1.33;;;;;;;;;;5054691;28;20128;-74
2022/11/20 05:04:43;;;;;;;3.55;1.10;;;;;;;;;;5055130;28;20048;-74
2022/11/20 05:07:09;;;;;;;4.30;1.27;;;;;;;;;;5054655;28;20540;-74
2022/11/20 05:09:35;;;;;;;5.28;1.45;;;;;;;;;;5054512;28;20087;-74
2022/11/20 05:12:01;;;;;;;3.60;1.30;;;;;;;;;;5054456;28;20041;-74
2022/11/20 05:14:27;;;;;;;6.32;1.30;;;;;;;;;;5054788;28;20037;-74
2022/11/20 05:16:53;;;;;;;3.03;1.00;;;;;;;;;;5054543;28;20048;-74
2022/11/20 05:19:19;;;;;;;5.57;1.17;;;;;;;;;;5055045;28;20049;-74
2022/11/20 05:21:45;;;;;;;5.50;1.60;;;;;;;;;;5055001;28;20090;-74
2022/11/20 05:24:12;;;;;;;4.57;1.40;;;;;;;;;;5054758;28;20072;-74
2022/11/20 05:26:38;;;;;;;3.80;1.00;;;;;;;;;;5054289;28;20073;-74
2022/11/20 05:29:04;;;;;;;5.07;1.30;;;;;;;;;;5056327;28;20045;-74
2022/11/20 05:31:30;;;;;;;4.93;1.35;;;;;;;;;;5058420;28;20076;-74
2022/11/20 05:33:57;;;;;;;5.60;1.20;;;;;;;;;;5058705;28;20040;-74
2022/11/20 05:36:23;;;;;;;5.00;1.40;;;;;;;;;;5058046;28;20051;-74
2022/11/20 05:38:49;;;;;;;5.75;1.23;;;;;;;;;;5058846;28;20480;-74
2022/11/20 05:41:16;;;;;;;5.80;1.23;;;;;;;;;;5057834;28;20037;-74
2022/11/20 05:43:44;;;;;;;7.47;1.10;;;;;;;;;;5058487;28;20468;-74
2022/11/20 05:46:12;;;;;;;6.47;1.35;;;;;;;;;;5058153;28;20037;-74
2022/11/20 05:48:41;;;;;;;3.17;1.35;;;;;;;;;;5056268;28;20047;-74
2022/11/20 05:51:09;;;;;;;7.05;2.30;;;;;;;;;;5057389;28;20052;-74
2022/11/20 05:53:35;;;;;;;2.97;1.00;;;;;;;;;;5057780;28;20041;-74
2022/11/20 05:56:03;;;;;;;3.00;1.20;;;;;;;;;;5057544;28;20498;-75
2022/11/20 05:58:30;;;;;;;4.38;1.23;;;;;;;;;;5056768;28;20079;-74
2022/11/20 06:01:04;;;;;;;5.07;1.17;;;;;;;;;;5061447;28;20059;-74
2022/11/20 06:03:30;;;;;;;3.78;1.00;;;;;;;;;;5076264;28;20107;-74
2022/11/20 06:05:56;;;;;;;3.53;1.20;;;;;;;;;;5066742;28;20041;-74
2022/11/20 06:08:22;;;;;;;3.50;1.30;;;;;;;;;;5058080;28;20041;-74
2022/11/20 06:10:48;;;;;;;2.42;1.17;;;;;;;;;;5056826;28;20381;-74
2022/11/20 06:13:14;;;;;;;2.90;1.10;;;;;;;;;;5056653;28;20037;-74
2022/11/20 06:15:40;;;;;;;3.35;1.52;;;;;;;;;;5057303;28;20037;-74
2022/11/20 06:18:06;;;;;;;3.35;1.10;;;;;;;;;;5058037;28;20128;-74
2022/11/20 06:20:32;;;;;;;3.63;1.10;;;;;;;;;;5056770;28;20052;-74
2022/11/20 06:22:58;;;;;;;4.07;1.40;;;;;;;;;;5056431;28;20037;-74
2022/11/20 06:25:24;;;;;;;2.95;0.80;;;;;;;;;;5056529;28;20105;-74
2022/11/20 06:27:51;;;;;;;6.10;1.50;;;;;;;;;;5056751;28;20040;-75
2022/11/20 06:30:17;;;;;;;4.07;1.40;;;;;;;;;;5056438;28;20049;-75
2022/11/20 06:32:43;;;;;;;4.43;1.40;;;;;;;;;;5056329;28;20029;-75
2022/11/20 06:35:09;;;;;;;2.88;1.10;;;;;;;;;;5056695;28;20483;-75
2022/11/20 06:37:35;;;;;;;3.47;0.80;;;;;;;;;;5056964;28;20135;-75
2022/11/20 06:40:01;;;;;;;2.75;1.10;;;;;;;;;;5055934;28;20057;-74
2022/11/20 06:42:27;;;;;;;3.13;1.20;;;;;;;;;;5056242;28;20083;-74
2022/11/20 06:44:53;;;;;;;3.42;1.00;;;;;;;;;;5056662;28;20090;-74
2022/11/20 06:47:20;;;;;;;4.88;1.40;;;;;;;;;;5056815;28;20059;-74
2022/11/20 06:49:46;;;;;;;2.75;1.00;;;;;;;;;;5056621;28;20091;-75
2022/11/20 06:52:12;;;;;;;6.10;1.02;;;;;;;;;;5056401;28;20071;-74
2022/11/20 06:54:38;;;;;;;5.57;1.10;;;;;;;;;;5056600;28;20041;-74
2022/11/20 06:57:04;;;;;;;3.40;0.88;;;;;;;;;;5056714;28;20499;-74
2022/11/20 06:59:30;;;;;;;3.42;1.17;;;;;;;;;;5056470;28;20056;-74
2022/11/20 07:01:56;;;;;;;3.10;1.17;;;;;;;;;;5056658;28;20222;-74
2022/11/20 07:04:22;;;;;;;5.82;1.48;;;;;;;;;;5056711;28;20048;-74
2022/11/20 07:06:48;;;;;;;2.80;0.73;;;;;;;;;;5056118;28;20480;-75
2022/11/20 07:09:15;;;;;;;2.67;1.23;;;;;;;;;;5057159;28;20119;-75
2022/11/20 07:11:41;;;;;;;3.13;1.30;;;;;;;;;;5056706;28;20044;-75
2022/11/20 07:14:07;;;;;;;2.75;1.02;;;;;;;;;;5066059;28;20051;-74
2022/11/20 07:16:33;;;;;;;4.72;1.30;;;;;;;;;;5076164;28;20036;-74
2022/11/20 07:18:59;;;;;;;3.80;1.83;;;;;;;;;;5076087;28;20049;-73
2022/11/20 07:21:25;;;;;;;6.70;1.52;;;;;;;;;;5076160;28;20051;-74
2022/11/20 07:23:51;;;;;;;20.77;12.93;;;;;;;;;;5076371;28;20044;-74
2022/11/20 07:26:17;;;;;;;5.40;1.50;;;;;;;;;;5076362;28;20064;-74
2022/11/20 07:28:47;;;;;;;1.90;1.00;;;;;;;;;;5074586;28;20550;-73
2022/11/20 07:31:13;;;;;;;7.72;1.50;;;;;;;;;;5055221;28;20075;-73
2022/11/20 07:33:39;;;;;;;2.25;1.20;;;;;;;;;;5055082;28;20438;-74
2022/11/20 07:36:05;;;;;;;4.68;1.48;;;;;;;;;;5056377;28;20045;-74
2022/11/20 07:38:31;;;;;;;5.88;1.02;;;;;;;;;;5055025;28;20045;-74
2022/11/20 07:40:58;;;;;;;2.90;1.20;;;;;;;;;;5054898;28;20052;-74
2022/11/20 07:43:25;;;;;;;4.18;1.45;;;;;;;;;;5055061;28;20033;-74
2022/11/20 07:45:51;;;;;;;6.63;2.50;;;;;;;;;;5054870;28;20484;-74
2022/11/20 07:48:17;;;;;;;3.20;1.55;;;;;;;;;;5055217;28;20510;-73
2022/11/20 07:50:43;;;;;;;3.75;1.30;;;;;;;;;;5055883;28;20099;-74
2022/11/20 07:53:09;;;;;;;5.30;1.52;;;;;;;;;;5055089;28;20056;-74
2022/11/20 07:55:36;;;;;;;3.85;1.50;;;;;;;;;;5055623;28;20044;-73
2022/11/20 07:58:02;;;;;;;2.17;1.30;;;;;;;;;;5055600;28;20115;-74
2022/11/20 08:00:28;;;;;;;2.15;1.23;;;;;;;;;;5055848;28;20044;-74
2022/11/20 08:02:54;;;;;;;4.18;1.27;;;;;;;;;;5055552;28;20033;-74
2022/11/20 08:05:20;;;;;;;3.85;1.45;;;;;;;;;;5055591;28;20114;-74
2022/11/20 08:07:46;;;;;;;3.85;1.77;;;;;;;;;;5055171;28;20037;-74
2022/11/20 08:10:14;;;;;;;5.85;1.48;;;;;;;;;;5055532;28;20040;-74
2022/11/20 08:15:35;;;;;;;8.23;1.45;;;;;;;;;;5054873;28;20087;-74
2022/11/20 08:18:10;;;;;;;5.05;1.70;;;;;;;;;;5055537;28;20033;-73
2022/11/20 08:20:36;;;;;;;4.68;1.35;;;;;;;;;;5055107;28;20551;-74
2022/11/20 08:23:05;;;;;;;4.53;1.40;;;;;;;;;;5054982;28;20491;-74
2022/11/20 08:25:32;;;;;;;4.90;1.27;;;;;;;;;;5054954;28;20385;-74
2022/11/20 08:27:59;;;;;;;2.08;1.15;;;;;;;;;;5054841;28;20038;-74
2022/11/20 08:30:27;;;;;;;4.70;1.83;;;;;;;;;;5054506;28;20057;-73
2022/11/20 08:32:54;;;;;;;5.10;1.45;;;;;;;;;;5054753;28;20029;-74
2022/11/20 08:35:20;;;;;;;3.10;1.45;;;;;;;;;;5054595;28;20496;-74
2022/11/20 08:37:47;;;;;;;4.80;1.83;;;;;;;;;;5054741;28;20074;-73
2022/11/20 08:40:13;;;;;;;4.95;2.70;;;;;;;;;;5054598;28;20045;-73
2022/11/20 08:42:51;;;;;;;6.78;2.35;;;;;;;;;;5054779;28;20052;-74
2022/11/20 08:45:18;;;;;;;11.50;5.18;;;;;;;;;;5054593;28;20040;-73
2022/11/20 08:47:45;;;;;;;13.98;7.32;;;;;;;;;;5054440;28;20099;-73
2022/11/20 08:50:12;;;;;;;12.23;5.18;;;;;;;;;;5053962;28;20083;-73
2022/11/20 08:52:38;;;;;;;12.75;5.47;;;;;;;;;;5054281;28;20044;-74
2022/11/20 08:55:05;;;;;;;8.15;3.90;;;;;;;;;;5054326;28;20117;-73
2022/11/20 08:57:35;;;;;;;7.30;3.63;;;;;;;;;;5054266;28;20029;-73
2022/11/20 09:00:01;;;;;;;8.05;2.67;;;;;;;;;;5054341;28;20076;-76
2022/11/20 09:02:27;;;;;;;7.30;3.20;;;;;;;;;;5054467;28;20040;-71
2022/11/20 09:04:53;;;;;;;10.82;4.85;;;;;;;;;;5053599;28;20528;-71
2022/11/20 09:07:20;;;;;;;8.70;1.85;;;;;;;;;;5054294;28;20037;-72
2022/11/20 09:09:46;;;;;;;6.20;2.05;;;;;;;;;;5054609;28;20124;-72
2022/11/20 09:12:12;;;;;;;5.47;2.38;;;;;;;;;;5054653;28;20041;-71
2022/11/20 09:14:38;;;;;;;4.10;1.30;;;;;;;;;;5054278;28;20040;-73
2022/11/20 09:17:05;;;;;;;10.80;4.97;;;;;;;;;;5054252;28;20163;-73
2022/11/20 09:19:31;;;;;;;6.82;2.60;;;;;;;;;;5054338;28;20053;-74
2022/11/20 09:21:58;;;;;;;8.23;3.72;;;;;;;;;;5053951;28;20106;-76
2022/11/20 09:24:24;;;;;;;13.50;6.40;;;;;;;;;;5054231;28;20048;-75
2022/11/20 09:26:50;;;;;;;2.95;1.48;;;;;;;;;;5054388;28;20123;-74
2022/11/20 09:29:16;;;;;;;6.43;2.58;;;;;;;;;;5054447;28;20128;-74
2022/11/20 09:31:42;;;;;;;6.28;2.20;;;;;;;;;;5053632;28;20432;-75
2022/11/20 09:34:09;;;;;;;5.63;1.42;;;;;;;;;;5054055;28;20041;-72
2022/11/20 09:36:35;;;;;;;28.60;6.00;;;;;;;;;;5053901;28;20033;-74
2022/11/20 09:39:02;;;;;;;4.68;1.50;;;;;;;;;;5054122;28;20500;-73
2022/11/20 09:41:47;;;;;;;6.38;2.05;;;;;;;;;;5053892;28;20041;-73
2022/11/20 09:44:32;;;;;;;7.75;2.53;;;;;;;;;;5053988;28;20037;-73
2022/11/20 09:47:17;;;;;;;7.10;2.75;;;;;;;;;;5053948;28;20190;-74
2022/11/20 09:49:46;;;;;;;8.20;1.85;;;;;;;;;;5053924;28;20045;-74
2022/11/20 09:52:30;;;;;;;2.83;1.10;;;;;;;;;;5053860;28;20090;-74
2022/11/20 09:54:57;;;;;;;5.07;2.13;;;;;;;;;;5053721;28;20481;-73
2022/11/20 09:57:31;;;;;;;2.75;1.65;;;;;;;;;;5053757;28;20044;-73
2022/11/20 10:00:00;;;;;;;5.32;1.30;;;;;;;;;;5053611;28;20527;-73
2022/11/20 10:02:26;;;;;;;1.40;0.70;;;;;;;;;;5050650;28;20048;-74
2022/11/20 10:05:04;;;;;;;4.30;1.60;;;;;;;;;;5042278;28;20072;-74
2022/11/20 10:07:38;;;;;;;4.80;1.85;;;;;;;;;;5048216;28;20496;-74
2022/11/20 10:10:05;;;;;;;3.08;1.25;;;;;;;;;;5052763;28;20404;-74
2022/11/20 10:12:38;;;;;;;3.40;1.25;;;;;;;;;;5052749;28;20041;-74
2022/11/20 10:15:08;;;;;;;5.63;1.38;;;;;;;;;;5054356;28;20037;-74
2022/11/20 10:17:53;;;;;;;6.97;1.67;;;;;;;;;;5055977;28;20037;-74
2022/11/20 10:20:30;;;;;;;4.88;1.08;;;;;;;;;;5056162;28;20048;-74
2022/11/20 10:23:09;;;;;;;5.45;1.77;;;;;;;;;;5055534;28;20206;-74
2022/11/20 10:25:51;;;;;;;5.32;2.15;;;;;;;;;;5056104;28;20045;-75
2022/11/20 10:28:28;;;;;;;3.63;1.80;;;;;;;;;;5056139;28;20721;-74
2022/11/20 10:31:00;;;;;;;4.35;1.98;;;;;;;;;;5056599;28;20048;-74
2022/11/20 10:33:27;;;;;;;4.47;1.27;;;;;;;;;;5054871;28;20045;-75
2022/11/20 10:35:53;;;;;;;3.42;1.52;;;;;;;;;;5055963;28;20036;-74
2022/11/20 10:38:26;;;;;;;5.03;1.60;;;;;;;;;;5056221;28;20052;-74
2022/11/20 10:41:24;;;;;;;6.00;2.38;;;;;;;;;;5055788;28;20049;-74
2022/11/20 10:43:47;;;;;;;5.22;1.80;;;;;;;;;;5056154;28;20083;-74
2022/11/20 10:46:16;;;;;;;7.50;2.88;;;;;;;;;;5056163;28;20045;-74
2022/11/20 10:48:43;;;;;;;6.10;2.67;;;;;;;;;;5055295;28;20056;-74
2022/11/20 10:51:19;;;;;;;11.50;4.57;;;;;;;;;;5055546;28;20037;-74
2022/11/20 10:53:48;;;;;;;7.95;2.97;;;;;;;;;;5056308;28;20562;-74
2022/11/20 10:56:33;;;;;;;10.02;6.15;;;;;;;;;;5056078;28;20044;-74
2022/11/20 10:58:59;;;;;;;8.02;3.20;;;;;;;;;;5055546;28;20053;-74
2022/11/20 11:01:26;;;;;;;4.43;2.10;;;;;;;;;;5055814;28;20048;-74
2022/11/20 11:03:53;;;;;;;6.03;1.92;;;;;;;;;;5054808;28;20041;-74
2022/11/20 11:06:20;;;;;;;5.30;1.90;;;;;;;;;;5056101;28;20040;-74
2022/11/20 11:08:48;;;;;;;5.43;1.90;;;;;;;;;;5055293;28;20041;-74
2022/11/20 11:11:28;;;;;;;5.07;2.25;;;;;;;;;;5055549;28;20072;-74
2022/11/20 11:14:04;;;;;;;6.75;2.78;;;;;;;;;;5055164;28;20124;-74
2022/11/20 11:16:30;;;;;;;6.90;3.35;;;;;;;;;;5055298;28;20117;-74
2022/11/20 11:19:07;;;;;;;7.32;3.00;;;;;;;;;;5055460;28;20068;-74
2022/11/20 11:21:33;;;;;;;11.80;4.93;;;;;;;;;;5054830;28;20043;-74
2022/11/20 11:24:04;;;;;;;8.85;2.97;;;;;;;;;;5055642;28;20071;-74
2022/11/20 11:26:30;;;;;;;14.85;6.88;;;;;;;;;;5054125;28;20136;-74
2022/11/20 11:28:57;;;;;;;14.20;6.75;;;;;;;;;;5054777;28;20053;-78
2022/11/20 11:31:27;;;;;;;9.55;3.53;;;;;;;;;;5054643;28;20040;-73
2022/11/20 11:34:04;;;;;;;6.80;1.50;;;;;;;;;;5053849;28;20071;-73
2022/11/20 11:36:31;;;;;;;10.75;4.10;;;;;;;;;;5053649;28;20507;-73
2022/11/20 11:38:57;;;;;;;11.18;4.90;;;;;;;;;;5055034;28;20048;-73
2022/11/20 11:41:24;;;;;;;11.00;5.05;;;;;;;;;;5046493;28;20448;-72
2022/11/20 11:46:38;;;;;;;9.68;4.80;;;;;;;;;;5054950;28;20404;-73
2022/11/20 11:49:10;;;;;;;6.10;2.53;;;;;;;;;;5054698;28;20128;-73
2022/11/20 11:51:58;;;;;;;2.88;1.63;;;;;;;;;;5055545;28;20122;-73
2022/11/20 11:54:27;;;;;;;35.75;23.60;;;;;;;;;;5055018;28;20037;-73
2022/11/20 11:56:53;;;;;;;14.95;8.18;;;;;;;;;;5054593;28;20491;-73
2022/11/20 11:59:26;;;;;;;7.78;4.70;;;;;;;;;;5054521;28;20099;-73
2022/11/20 12:01:54;;;;;;;9.07;6.05;;;;;;;;;;5055295;28;20053;-73
2022/11/20 12:04:23;;;;;;;1.88;0.98;;;;;;;;;;5054848;28;20060;-73
2022/11/20 12:06:53;;;;;;;2.85;1.75;;;;;;;;;;5054784;28;20083;-73
2022/11/20 12:09:20;;;;;;;29.17;14.32;;;;;;;;;;5055493;28;20044;-73
2022/11/20 12:12:10;;;;;;;5.35;4.30;;;;;;;;;;5054141;28;20131;-73
2022/11/20 12:14:36;;;;;;;5.78;3.13;;;;;;;;;;5054705;28;20542;-73
2022/11/20 12:17:02;;;;;;;4.45;2.47;;;;;;;;;;5054354;28;20075;-73
2022/11/20 12:19:31;;;;;;;11.10;6.50;;;;;;;;;;5053905;28;20068;-73
2022/11/20 12:22:00;;;;;;;27.08;14.40;;;;;;;;;;5049371;28;20041;-73
2022/11/20 12:24:38;;;;;;;17.27;7.88;;;;;;;;;;5047559;28;20570;-74
2022/11/20 12:27:14;;;;;;;9.70;4.95;;;;;;;;;;5053559;28;20546;-74
2022/11/20 12:30:13;;;;;;;12.00;4.95;;;;;;;;;;5053719;28;20443;-73
2022/11/20 12:32:58;;;;;;;9.55;4.47;;;;;;;;;;5026614;28;20044;-73
2022/11/20 12:35:32;;;;;;;3.92;1.80;;;;;;;;;;5053974;28;20041;-73
2022/11/20 12:37:58;;;;;;;20.67;8.27;;;;;;;;;;5054405;28;20048;-73
2022/11/20 12:40:31;;;;;;;5.15;2.55;;;;;;;;;;5036429;28;20049;-73
2022/11/20 12:46:23;;;;;;;5.97;2.83;;;;;;;;;;5050870;28;20120;-73
2022/11/20 12:49:01;;;;;;;10.57;4.30;;;;;;;;;;5053561;28;20072;-73
2022/11/20 12:51:27;;;;;;;10.07;3.95;;;;;;;;;;5053618;28;20045;-71
2022/11/20 12:54:00;;;;;;;8.38;3.58;;;;;;;;;;5049593;28;20051;-72
2022/11/20 12:56:42;;;;;;;13.45;6.97;;;;;;;;;;5047598;28;20128;-71
2022/11/20 12:59:08;;;;;;;11.13;5.07;;;;;;;;;;5051912;28;20087;-70
2022/11/20 13:01:40;;;;;;;7.43;3.40;;;;;;;;;;5052789;28;20055;-70
2022/11/20 13:04:10;;;;;;;22.35;12.35;;;;;;;;;;5052616;28;20037;-70
2022/11/20 13:06:36;;;;;;;8.05;2.67;;;;;;;;;;5052474;28;20041;-70
2022/11/20 13:09:03;;;;;;;3.58;1.48;;;;;;;;;;5052578;28;20041;-70
2022/11/20 13:11:32;;;;;;;4.13;1.15;;;;;;;;;;5052892;28;20128;-70
2022/11/20 13:14:14;;;;;;;5.30;2.03;;;;;;;;;;5051756;28;20087;-70
2022/11/20 13:16:52;;;;;;;6.07;2.38;;;;;;;;;;5051293;28;20037;-70
2022/11/20 13:19:19;;;;;;;4.75;1.45;;;;;;;;;;5051729;28;20494;-70
2022/11/20 13:21:48;;;;;;;4.07;2.22;;;;;;;;;;5052694;28;20048;-71
2022/11/20 13:24:35;;;;;;;5.88;1.40;;;;;;;;;;5051521;28;20040;-71
2022/11/20 13:27:06;;;;;;;6.03;2.10;;;;;;;;;;5052964;28;20077;-71
2022/11/20 13:29:32;;;;;;;;;;;;;;;;;;5052956;28;20282;-70
2022/11/20 13:32:31;;;;;;;3.90;1.63;;;;;;;;;;5052581;28;20287;-70
2022/11/20 13:35:01;;;;;;;4.82;2.20;;;;;;;;;;5052754;28;20041;-70
2022/11/20 13:37:29;;;;;;;7.73;3.57;;;;;;;;;;5052489;28;20044;-70
2022/11/20 13:40:08;;;;;;;10.40;5.55;;;;;;;;;;5052483;28;20283;-70
2022/11/20 13:42:36;;;;;;;3.40;2.45;;;;;;;;;;5052935;28;20052;-70
2022/11/20 13:45:08;;;;;;;4.85;2.40;;;;;;;;;;5051921;28;20617;-71
2022/11/20 13:47:36;;;;;;;5.28;1.60;;;;;;;;;;5051135;28;20037;-71
2022/11/20 13:50:04;;;;;;;3.92;2.30;;;;;;;;;;5054386;28;20055;-72
2022/11/20 13:52:33;;;;;;;2.63;1.20;;;;;;;;;;5057262;28;20048;-70
2022/11/20 13:55:05;;;;;;;7.32;4.20;;;;;;;;;;5054224;28;20102;-70
2022/11/20 13:57:43;;;;;;;5.55;2.60;;;;;;;;;;5056046;28;20559;-70
2022/11/20 14:00:16;;;;;;;2.63;1.65;;;;;;;;;;5053419;28;20052;-69
2022/11/20 14:02:42;;;;;;;2.92;1.80;;;;;;;;;;5056269;28;20500;-70
2022/11/20 14:05:16;;;;;;;3.13;2.20;;;;;;;;;;5056828;28;20041;-69
2022/11/20 14:07:43;;;;;;;7.10;1.58;;;;;;;;;;5056066;28;20067;-70
2022/11/20 14:10:23;;;;;;;3.97;2.58;;;;;;;;;;5055797;28;20049;-70
2022/11/20 14:12:50;;;;;;;6.25;3.55;;;;;;;;;;5056709;28;20033;-70
2022/11/20 14:15:35;;;;;;;6.28;2.97;;;;;;;;;;5056963;28;20055;-70
2022/11/20 14:18:11;;;;;;;1.67;1.08;;;;;;;;;;5056056;28;20119;-70
2022/11/20 14:20:38;;;;;;;4.28;2.25;;;;;;;;;;5056054;28;20076;-70
2022/11/20 14:23:05;;;;;;;3.72;1.13;;;;;;;;;;5055821;28;20029;-70
2022/11/20 14:25:31;;;;;;;6.10;2.97;;;;;;;;;;5055642;28;20049;-70
2022/11/20 14:27:58;;;;;;;3.03;1.45;;;;;;;;;;5056737;28;20051;-70
2022/11/20 14:30:29;;;;;;;4.53;2.03;;;;;;;;;;5055733;28;20045;-69
2022/11/20 14:33:00;;;;;;;4.57;1.65;;;;;;;;;;5055999;28;20041;-70
2022/11/20 14:35:28;;;;;;;3.97;1.70;;;;;;;;;;5056765;28;20229;-70
2022/11/20 14:37:54;;;;;;;5.68;1.70;;;;;;;;;;5055498;28;20127;-71
2022/11/20 14:40:23;;;;;;;11.18;3.08;;;;;;;;;;5056284;28;20044;-69
2022/11/20 14:42:49;;;;;;;8.48;3.70;;;;;;;;;;5056337;28;20549;-70
2022/11/20 14:45:16;;;;;;;5.13;2.50;;;;;;;;;;5045677;28;20124;-70
2022/11/20 14:47:43;;;;;;;7.43;4.47;;;;;;;;;;5054079;28;20060;-70
2022/11/20 14:50:23;;;;;;;6.53;2.80;;;;;;;;;;5055479;28;20049;-70
2022/11/20 14:52:57;;;;;;;5.55;2.20;;;;;;;;;;5055224;28;20112;-70
2022/11/20 14:55:33;;;;;;;4.38;2.42;;;;;;;;;;5055835;28;20044;-70
2022/11/20 14:58:02;;;;;;;9.50;5.70;;;;;;;;;;5055002;28;20041;-70
2022/11/20 15:00:28;;;;;;;8.10;4.13;;;;;;;;;;5055358;28;20564;-70
2022/11/20 15:02:54;;;;;;;14.18;7.18;;;;;;;;;;5054868;28;20041;-69